Cannon Beach, OR

3:47 AM PDT on October 31, 2014 (GMT -0700)
Tillamook | Change Station
CLOSE
Current Station
Airport
Location: Tillamook,
Elevation: 36 ft
Nearby Weather Stations

Elev 36 ft 45.42 °N, 123.81 °W | Updated 12 minutes ago

Rain
Rain
54 °F
Feels Like 54 °F
N
0
Wind Variable Wind from North

Today
High -- | Low -- °F
--% Chance of Precip.
Yesterday
High -- | Low -- °F
Precip. -- in
7:54 AM 6:03 PM
First Quarter, 54% visible
Pressure 29.74 in
Visibility 4.0 miles
Clouds Scattered Clouds 300 ft
Mostly Cloudy 1100 ft
Overcast 3600 ft
Dew Point 52 °F
Humidity 94%
Rainfall 0.14 in
Snow Depth Not available.
UV 0 out of 12
Pollen .30 out of 12
Air Quality Not available.
Flu Activity Not available.
METAR KTMK 311035Z AUTO 00000KT 4SM DZ SCT003 BKN011 OVC036 12/11 A2974 RMK AO2 P0001

More Conditions Fewer Conditions

Pressure 29.74 in
Visibility 4.0 miles
Clouds Scattered Clouds 300 ft
Mostly Cloudy 1100 ft
Overcast 3600 ft
Dew Point 52 °F
Humidity 94%
Rainfall 0.14 in
Snow Depth Not available.
UV 0 out of 12
Pollen .30 out of 12
Air Quality Not available.
Flu Activity Not available.
METAR KTMK 311035Z AUTO 00000KT 4SM DZ SCT003 BKN011 OVC036 12/11 A2974 RMK AO2 P0001

More Conditions Fewer Conditions

10-Day Weather Forecast

Almanac

Astronomy

Oct. 31, 2014 Rise Set
Actual Time
Civil Twilight
Nautical Twilight
Astronomical Twilight
Moon
Length of Visible Light
Length of Day
Tomorrow will be .
, % of the Moon is Illuminated

Today's Extremes

State Highs State Lows

Community

WunderPhotos

Upload Photos

1,766,580 photos uploaded!

WunderBlogs® & News

Nearby

Air Quality

  Air Quality AQ Index Pollutant
Not available.

Snow Depth

Station Depth Elevation

Earthquake Activity

City Distance Mag. Time & Date
Minimum magnitude displayed is 2.5.

Coastal Water Temperatures

Place Temperature

Nearby Weather Stations